sensor_id;sensor_type;location;lat;lon;timestamp;P1;durP1;ratioP1;P2;durP2;ratioP2
11334;SDS011;5722;42.620;23.374;2023-08-06T00:01:16;7.57;;;4.88;;
11334;SDS011;5722;42.620;23.374;2023-08-06T00:03:46;9.70;;;5.18;;
11334;SDS011;5722;42.620;23.374;2023-08-06T00:06:15;11.80;;;5.40;;
11334;SDS011;5722;42.620;23.374;2023-08-06T00:08:47;8.63;;;5.25;;
11334;SDS011;5722;42.620;23.374;2023-08-06T00:11:17;8.98;;;5.40;;
11334;SDS011;5722;42.620;23.374;2023-08-06T00:13:46;8.18;;;5.18;;
11334;SDS011;5722;42.620;23.374;2023-08-06T00:16:22;8.00;;;4.97;;
11334;SDS011;5722;42.620;23.374;2023-08-06T00:18:56;9.93;;;5.35;;
11334;SDS011;5722;42.620;23.374;2023-08-06T00:21:33;8.30;;;5.93;;
11334;SDS011;5722;42.620;23.374;2023-08-06T00:24:06;8.50;;;5.53;;
11334;SDS011;5722;42.620;23.374;2023-08-06T00:26:40;10.27;;;6.32;;
11334;SDS011;5722;42.620;23.374;2023-08-06T00:29:12;7.68;;;6.07;;
11334;SDS011;5722;42.620;23.374;2023-08-06T00:31:49;8.07;;;6.35;;
11334;SDS011;5722;42.620;23.374;2023-08-06T00:34:20;10.82;;;6.15;;
11334;SDS011;5722;42.620;23.374;2023-08-06T00:36:50;7.93;;;5.82;;
11334;SDS011;5722;42.620;23.374;2023-08-06T00:39:27;9.73;;;5.40;;
11334;SDS011;5722;42.620;23.374;2023-08-06T00:41:56;7.72;;;5.10;;
11334;SDS011;5722;42.620;23.374;2023-08-06T00:44:26;6.50;;;4.43;;
11334;SDS011;5722;42.620;23.374;2023-08-06T00:46:56;7.13;;;4.70;;
11334;SDS011;5722;42.620;23.374;2023-08-06T00:49:24;7.47;;;4.90;;
11334;SDS011;5722;42.620;23.374;2023-08-06T00:51:52;5.93;;;4.97;;
11334;SDS011;5722;42.620;23.374;2023-08-06T00:54:22;7.10;;;5.35;;
11334;SDS011;5722;42.620;23.374;2023-08-06T00:56:53;5.85;;;4.80;;
11334;SDS011;5722;42.620;23.374;2023-08-06T00:59:27;5.03;;;3.40;;
11334;SDS011;5722;42.620;23.374;2023-08-06T01:01:59;4.35;;;3.50;;
11334;SDS011;5722;42.620;23.374;2023-08-06T01:04:27;4.70;;;3.85;;
11334;SDS011;5722;42.620;23.374;2023-08-06T01:07:08;4.10;;;3.67;;
11334;SDS011;5722;42.620;23.374;2023-08-06T01:09:57;4.35;;;3.97;;
11334;SDS011;5722;42.620;23.374;2023-08-06T01:13:01;4.13;;;3.80;;
11334;SDS011;5722;42.620;23.374;2023-08-06T01:15:49;8.02;;;3.70;;
11334;SDS011;5722;42.620;23.374;2023-08-06T01:21:14;4.75;;;4.25;;
11334;SDS011;5722;42.620;23.374;2023-08-06T01:23:47;4.43;;;4.03;;
11334;SDS011;5722;42.620;23.374;2023-08-06T01:26:25;5.13;;;4.10;;
11334;SDS011;5722;42.620;23.374;2023-08-06T01:29:04;4.07;;;3.78;;
11334;SDS011;5722;42.620;23.374;2023-08-06T01:31:44;5.43;;;4.57;;
11334;SDS011;5722;42.620;23.374;2023-08-06T01:34:21;4.35;;;3.92;;
11334;SDS011;5722;42.620;23.374;2023-08-06T01:36:55;5.20;;;4.70;;
11334;SDS011;5722;42.620;23.374;2023-08-06T01:39:23;5.10;;;4.60;;
11334;SDS011;5722;42.620;23.374;2023-08-06T01:41:57;4.93;;;4.43;;
11334;SDS011;5722;42.620;23.374;2023-08-06T01:44:28;6.22;;;4.45;;
11334;SDS011;5722;42.620;23.374;2023-08-06T01:46:58;5.38;;;4.32;;
11334;SDS011;5722;42.620;23.374;2023-08-06T01:49:26;4.85;;;4.35;;
11334;SDS011;5722;42.620;23.374;2023-08-06T01:54:43;6.03;;;4.93;;
11334;SDS011;5722;42.620;23.374;2023-08-06T01:57:16;4.72;;;4.30;;
11334;SDS011;5722;42.620;23.374;2023-08-06T01:59:44;5.55;;;4.53;;
11334;SDS011;5722;42.620;23.374;2023-08-06T02:02:16;7.60;;;5.10;;
11334;SDS011;5722;42.620;23.374;2023-08-06T02:04:45;5.82;;;5.32;;
11334;SDS011;5722;42.620;23.374;2023-08-06T02:07:31;6.07;;;5.20;;
11334;SDS011;5722;42.620;23.374;2023-08-06T02:10:01;9.85;;;5.65;;
11334;SDS011;5722;42.620;23.374;2023-08-06T02:12:31;7.13;;;6.18;;
11334;SDS011;5722;42.620;23.374;2023-08-06T02:14:58;6.32;;;5.75;;
11334;SDS011;5722;42.620;23.374;2023-08-06T02:17:33;6.90;;;6.30;;
11334;SDS011;5722;42.620;23.374;2023-08-06T02:20:15;8.40;;;6.30;;
11334;SDS011;5722;42.620;23.374;2023-08-06T02:23:00;8.43;;;7.53;;
11334;SDS011;5722;42.620;23.374;2023-08-06T02:25:34;7.65;;;6.85;;
11334;SDS011;5722;42.620;23.374;2023-08-06T02:30:49;7.05;;;6.35;;
11334;SDS011;5722;42.620;23.374;2023-08-06T02:33:18;5.50;;;5.00;;
11334;SDS011;5722;42.620;23.374;2023-08-06T02:35:49;6.75;;;5.20;;
11334;SDS011;5722;42.620;23.374;2023-08-06T02:38:19;6.13;;;5.40;;
11334;SDS011;5722;42.620;23.374;2023-08-06T02:40:47;5.55;;;5.05;;
11334;SDS011;5722;42.620;23.374;2023-08-06T02:43:17;7.00;;;5.50;;
11334;SDS011;5722;42.620;23.374;2023-08-06T02:45:48;5.47;;;4.97;;
11334;SDS011;5722;42.620;23.374;2023-08-06T02:48:16;7.78;;;5.57;;
11334;SDS011;5722;42.620;23.374;2023-08-06T02:50:47;11.10;;;6.00;;
11334;SDS011;5722;42.620;23.374;2023-08-06T02:53:21;6.03;;;5.20;;
11334;SDS011;5722;42.620;23.374;2023-08-06T02:55:48;6.13;;;5.53;;
11334;SDS011;5722;42.620;23.374;2023-08-06T02:58:21;6.55;;;5.40;;
11334;SDS011;5722;42.620;23.374;2023-08-06T03:00:58;5.95;;;5.15;;
11334;SDS011;5722;42.620;23.374;2023-08-06T03:03:28;7.68;;;6.13;;
11334;SDS011;5722;42.620;23.374;2023-08-06T03:06:02;8.40;;;5.95;;
11334;SDS011;5722;42.620;23.374;2023-08-06T03:08:35;7.43;;;6.25;;
11334;SDS011;5722;42.620;23.374;2023-08-06T03:11:08;6.10;;;5.30;;
11334;SDS011;5722;42.620;23.374;2023-08-06T03:13:43;9.40;;;5.88;;
11334;SDS011;5722;42.620;23.374;2023-08-06T03:16:15;6.50;;;5.68;;
11334;SDS011;5722;42.620;23.374;2023-08-06T03:21:24;12.52;;;6.68;;
11334;SDS011;5722;42.620;23.374;2023-08-06T03:23:55;10.07;;;6.30;;
11334;SDS011;5722;42.620;23.374;2023-08-06T03:26:23;10.38;;;6.45;;
11334;SDS011;5722;42.620;23.374;2023-08-06T03:28:59;10.88;;;6.65;;
11334;SDS011;5722;42.620;23.374;2023-08-06T03:31:34;8.77;;;6.90;;
11334;SDS011;5722;42.620;23.374;2023-08-06T03:34:12;9.32;;;6.43;;
11334;SDS011;5722;42.620;23.374;2023-08-06T03:36:40;9.25;;;6.60;;
11334;SDS011;5722;42.620;23.374;2023-08-06T03:39:17;8.18;;;6.85;;
11334;SDS011;5722;42.620;23.374;2023-08-06T03:42:03;9.57;;;6.82;;
11334;SDS011;5722;42.620;23.374;2023-08-06T03:44:41;7.88;;;6.70;;
11334;SDS011;5722;42.620;23.374;2023-08-06T03:47:17;7.85;;;6.53;;
11334;SDS011;5722;42.620;23.374;2023-08-06T03:49:48;7.18;;;6.30;;
11334;SDS011;5722;42.620;23.374;2023-08-06T03:52:25;9.05;;;6.25;;
11334;SDS011;5722;42.620;23.374;2023-08-06T03:57:39;7.40;;;6.38;;
11334;SDS011;5722;42.620;23.374;2023-08-06T04:00:10;10.52;;;6.40;;
11334;SDS011;5722;42.620;23.374;2023-08-06T04:02:40;11.20;;;7.03;;
11334;SDS011;5722;42.620;23.374;2023-08-06T04:05:11;6.65;;;6.05;;
11334;SDS011;5722;42.620;23.374;2023-08-06T04:07:39;7.15;;;6.00;;
11334;SDS011;5722;42.620;23.374;2023-08-06T04:10:13;7.45;;;5.65;;
11334;SDS011;5722;42.620;23.374;2023-08-06T04:12:48;6.13;;;5.53;;
11334;SDS011;5722;42.620;23.374;2023-08-06T04:15:26;5.85;;;5.28;;
11334;SDS011;5722;42.620;23.374;2023-08-06T04:17:58;11.52;;;5.82;;
11334;SDS011;5722;42.620;23.374;2023-08-06T04:20:31;7.68;;;5.45;;
11334;SDS011;5722;42.620;23.374;2023-08-06T04:23:05;5.97;;;5.32;;
11334;SDS011;5722;42.620;23.374;2023-08-06T04:25:42;6.32;;;5.78;;
11334;SDS011;5722;42.620;23.374;2023-08-06T04:28:13;6.00;;;5.25;;
11334;SDS011;5722;42.620;23.374;2023-08-06T04:30:47;5.35;;;4.80;;
11334;SDS011;5722;42.620;23.374;2023-08-06T04:33:16;5.53;;;5.03;;
11334;SDS011;5722;42.620;23.374;2023-08-06T04:35:53;5.65;;;5.05;;
11334;SDS011;5722;42.620;23.374;2023-08-06T04:38:25;7.30;;;5.22;;
11334;SDS011;5722;42.620;23.374;2023-08-06T04:41:08;8.15;;;5.93;;
11334;SDS011;5722;42.620;23.374;2023-08-06T04:43:35;8.65;;;6.30;;
11334;SDS011;5722;42.620;23.374;2023-08-06T04:46:09;7.28;;;6.20;;
11334;SDS011;5722;42.620;23.374;2023-08-06T04:48:40;8.05;;;6.75;;
11334;SDS011;5722;42.620;23.374;2023-08-06T04:51:11;7.63;;;6.82;;
11334;SDS011;5722;42.620;23.374;2023-08-06T04:53:42;9.90;;;7.47;;
11334;SDS011;5722;42.620;23.374;2023-08-06T04:56:18;8.18;;;6.88;;
11334;SDS011;5722;42.620;23.374;2023-08-06T04:58:46;7.53;;;6.82;;
11334;SDS011;5722;42.620;23.374;2023-08-06T05:01:24;10.00;;;7.13;;
11334;SDS011;5722;42.620;23.374;2023-08-06T05:03:56;7.15;;;6.45;;
11334;SDS011;5722;42.620;23.374;2023-08-06T05:06:24;6.72;;;6.13;;
11334;SDS011;5722;42.620;23.374;2023-08-06T05:08:53;7.47;;;5.60;;
11334;SDS011;5722;42.620;23.374;2023-08-06T05:14:06;6.13;;;5.53;;
11334;SDS011;5722;42.620;23.374;2023-08-06T05:16:40;6.13;;;5.53;;
11334;SDS011;5722;42.620;23.374;2023-08-06T05:19:14;6.30;;;5.78;;
11334;SDS011;5722;42.620;23.374;2023-08-06T05:21:54;6.10;;;5.47;;
11334;SDS011;5722;42.620;23.374;2023-08-06T05:24:25;5.50;;;5.00;;
11334;SDS011;5722;42.620;23.374;2023-08-06T05:27:01;6.32;;;5.20;;
11334;SDS011;5722;42.620;23.374;2023-08-06T05:29:30;5.63;;;5.13;;
11334;SDS011;5722;42.620;23.374;2023-08-06T05:32:00;9.15;;;7.32;;
11334;SDS011;5722;42.620;23.374;2023-08-06T05:34:32;8.20;;;7.50;;
11334;SDS011;5722;42.620;23.374;2023-08-06T05:37:22;8.63;;;7.75;;
11334;SDS011;5722;42.620;23.374;2023-08-06T05:39:54;8.90;;;8.10;;
11334;SDS011;5722;42.620;23.374;2023-08-06T05:42:24;8.63;;;7.90;;
11334;SDS011;5722;42.620;23.374;2023-08-06T05:44:53;9.57;;;8.68;;
11334;SDS011;5722;42.620;23.374;2023-08-06T05:47:24;10.63;;;9.32;;
11334;SDS011;5722;42.620;23.374;2023-08-06T05:49:56;9.30;;;8.40;;
11334;SDS011;5722;42.620;23.374;2023-08-06T05:52:34;9.45;;;8.55;;
11334;SDS011;5722;42.620;23.374;2023-08-06T05:55:03;8.80;;;8.00;;
11334;SDS011;5722;42.620;23.374;2023-08-06T06:00:23;9.43;;;8.65;;
11334;SDS011;5722;42.620;23.374;2023-08-06T06:03:00;10.90;;;9.90;;
11334;SDS011;5722;42.620;23.374;2023-08-06T06:05:33;10.55;;;9.55;;
11334;SDS011;5722;42.620;23.374;2023-08-06T06:08:06;9.98;;;8.50;;
11334;SDS011;5722;42.620;23.374;2023-08-06T06:10:37;9.38;;;8.45;;
11334;SDS011;5722;42.620;23.374;2023-08-06T06:13:13;9.18;;;8.02;;
11334;SDS011;5722;42.620;23.374;2023-08-06T06:15:43;9.45;;;8.40;;
11334;SDS011;5722;42.620;23.374;2023-08-06T06:18:16;9.60;;;8.68;;
11334;SDS011;5722;42.620;23.374;2023-08-06T06:20:53;10.18;;;9.20;;
11334;SDS011;5722;42.620;23.374;2023-08-06T06:23:35;9.57;;;8.68;;
11334;SDS011;5722;42.620;23.374;2023-08-06T06:26:16;9.38;;;8.57;;
11334;SDS011;5722;42.620;23.374;2023-08-06T06:29:01;9.43;;;8.60;;
11334;SDS011;5722;42.620;23.374;2023-08-06T06:31:30;9.90;;;8.98;;
11334;SDS011;5722;42.620;23.374;2023-08-06T06:34:07;9.68;;;8.65;;
11334;SDS011;5722;42.620;23.374;2023-08-06T06:36:39;11.63;;;9.23;;
11334;SDS011;5722;42.620;23.374;2023-08-06T06:39:10;10.30;;;9.30;;
11334;SDS011;5722;42.620;23.374;2023-08-06T06:41:41;10.27;;;8.90;;
11334;SDS011;5722;42.620;23.374;2023-08-06T06:44:19;10.27;;;9.38;;
11334;SDS011;5722;42.620;23.374;2023-08-06T06:46:52;9.23;;;8.35;;
11334;SDS011;5722;42.620;23.374;2023-08-06T06:49:26;7.15;;;6.30;;
11334;SDS011;5722;42.620;23.374;2023-08-06T06:51:54;10.65;;;7.28;;
11334;SDS011;5722;42.620;23.374;2023-08-06T06:54:23;6.20;;;5.60;;
11334;SDS011;5722;42.620;23.374;2023-08-06T06:56:55;8.68;;;4.35;;
11334;SDS011;5722;42.620;23.374;2023-08-06T06:59:26;4.70;;;4.30;;
11334;SDS011;5722;42.620;23.374;2023-08-06T07:01:54;4.03;;;3.72;;
11334;SDS011;5722;42.620;23.374;2023-08-06T07:04:24;3.70;;;3.30;;
11334;SDS011;5722;42.620;23.374;2023-08-06T07:06:54;4.22;;;3.92;;
11334;SDS011;5722;42.620;23.374;2023-08-06T07:09:24;5.15;;;4.65;;
11334;SDS011;5722;42.620;23.374;2023-08-06T07:11:56;7.35;;;6.38;;
11334;SDS011;5722;42.620;23.374;2023-08-06T07:17:12;8.10;;;7.40;;
11334;SDS011;5722;42.620;23.374;2023-08-06T07:19:45;8.10;;;7.30;;
11334;SDS011;5722;42.620;23.374;2023-08-06T07:22:15;7.40;;;6.65;;
11334;SDS011;5722;42.620;23.374;2023-08-06T07:24:46;5.75;;;5.30;;
11334;SDS011;5722;42.620;23.374;2023-08-06T07:27:19;4.00;;;3.63;;
11334;SDS011;5722;42.620;23.374;2023-08-06T07:29:51;4.10;;;3.70;;
11334;SDS011;5722;42.620;23.374;2023-08-06T07:32:20;4.00;;;3.45;;
11334;SDS011;5722;42.620;23.374;2023-08-06T07:34:50;3.25;;;2.95;;
11334;SDS011;5722;42.620;23.374;2023-08-06T07:37:26;3.25;;;2.90;;
11334;SDS011;5722;42.620;23.374;2023-08-06T07:39:55;4.45;;;2.47;;
11334;SDS011;5722;42.620;23.374;2023-08-06T07:42:26;4.20;;;2.70;;
11334;SDS011;5722;42.620;23.374;2023-08-06T07:45:13;4.30;;;2.50;;
11334;SDS011;5722;42.620;23.374;2023-08-06T07:47:43;2.65;;;2.42;;
11334;SDS011;5722;42.620;23.374;2023-08-06T07:50:11;4.30;;;2.38;;
11334;SDS011;5722;42.620;23.374;2023-08-06T07:53:08;3.05;;;2.78;;
11334;SDS011;5722;42.620;23.374;2023-08-06T07:55:35;4.45;;;2.95;;
11334;SDS011;5722;42.620;23.374;2023-08-06T07:58:03;4.50;;;3.05;;
11334;SDS011;5722;42.620;23.374;2023-08-06T08:00:35;3.97;;;2.97;;
11334;SDS011;5722;42.620;23.374;2023-08-06T08:03:04;4.20;;;3.00;;
11334;SDS011;5722;42.620;23.374;2023-08-06T08:05:34;3.22;;;2.92;;
11334;SDS011;5722;42.620;23.374;2023-08-06T08:08:02;4.35;;;2.75;;
11334;SDS011;5722;42.620;23.374;2023-08-06T08:10:30;3.28;;;2.97;;
11334;SDS011;5722;42.620;23.374;2023-08-06T08:13:01;3.55;;;2.90;;
11334;SDS011;5722;42.620;23.374;2023-08-06T08:15:39;3.95;;;2.85;;
11334;SDS011;5722;42.620;23.374;2023-08-06T08:18:12;4.50;;;2.95;;
11334;SDS011;5722;42.620;23.374;2023-08-06T08:23:45;2.90;;;2.70;;
11334;SDS011;5722;42.620;23.374;2023-08-06T08:26:13;4.60;;;3.28;;
11334;SDS011;5722;42.620;23.374;2023-08-06T08:28:44;5.65;;;3.50;;
11334;SDS011;5722;42.620;23.374;2023-08-06T08:31:25;4.22;;;3.28;;
11334;SDS011;5722;42.620;23.374;2023-08-06T08:33:54;3.92;;;3.50;;
11334;SDS011;5722;42.620;23.374;2023-08-06T08:36:25;4.53;;;3.80;;
11334;SDS011;5722;42.620;23.374;2023-08-06T08:38:55;3.88;;;3.30;;
11334;SDS011;5722;42.620;23.374;2023-08-06T08:41:25;3.85;;;3.00;;
11334;SDS011;5722;42.620;23.374;2023-08-06T08:44:09;4.00;;;3.25;;
11334;SDS011;5722;42.620;23.374;2023-08-06T08:46:40;4.65;;;3.40;;
11334;SDS011;5722;42.620;23.374;2023-08-06T08:49:13;3.80;;;3.50;;
11334;SDS011;5722;42.620;23.374;2023-08-06T08:51:43;3.75;;;3.05;;
11334;SDS011;5722;42.620;23.374;2023-08-06T08:54:25;3.05;;;2.75;;
11334;SDS011;5722;42.620;23.374;2023-08-06T08:56:57;3.47;;;3.05;;
11334;SDS011;5722;42.620;23.374;2023-08-06T08:59:25;3.70;;;3.33;;
11334;SDS011;5722;42.620;23.374;2023-08-06T09:04:40;3.22;;;2.92;;
11334;SDS011;5722;42.620;23.374;2023-08-06T09:07:23;3.35;;;2.85;;
11334;SDS011;5722;42.620;23.374;2023-08-06T09:09:51;4.63;;;3.33;;
11334;SDS011;5722;42.620;23.374;2023-08-06T09:12:22;3.17;;;2.88;;
11334;SDS011;5722;42.620;23.374;2023-08-06T09:14:51;4.88;;;3.10;;
11334;SDS011;5722;42.620;23.374;2023-08-06T09:17:23;3.47;;;3.17;;
11334;SDS011;5722;42.620;23.374;2023-08-06T09:19:50;3.15;;;2.85;;
11334;SDS011;5722;42.620;23.374;2023-08-06T09:22:33;4.10;;;3.08;;
11334;SDS011;5722;42.620;23.374;2023-08-06T09:25:07;3.30;;;3.00;;
11334;SDS011;5722;42.620;23.374;2023-08-06T09:27:36;4.90;;;3.40;;
11334;SDS011;5722;42.620;23.374;2023-08-06T09:30:13;3.15;;;2.90;;
11334;SDS011;5722;42.620;23.374;2023-08-06T09:33:03;3.40;;;2.85;;
11334;SDS011;5722;42.620;23.374;2023-08-06T09:35:37;2.65;;;2.45;;
11334;SDS011;5722;42.620;23.374;2023-08-06T09:38:11;3.20;;;3.00;;
11334;SDS011;5722;42.620;23.374;2023-08-06T09:40:39;3.70;;;3.28;;
11334;SDS011;5722;42.620;23.374;2023-08-06T09:43:11;3.20;;;2.90;;
11334;SDS011;5722;42.620;23.374;2023-08-06T09:45:40;3.58;;;2.70;;
11334;SDS011;5722;42.620;23.374;2023-08-06T09:48:14;2.70;;;2.50;;
11334;SDS011;5722;42.620;23.374;2023-08-06T09:50:42;3.08;;;2.78;;
11334;SDS011;5722;42.620;23.374;2023-08-06T09:53:11;3.13;;;2.80;;
11334;SDS011;5722;42.620;23.374;2023-08-06T09:55:41;5.32;;;2.60;;
11334;SDS011;5722;42.620;23.374;2023-08-06T09:58:09;4.35;;;2.60;;
11334;SDS011;5722;42.620;23.374;2023-08-06T10:00:36;2.90;;;2.70;;
11334;SDS011;5722;42.620;23.374;2023-08-06T10:03:07;3.95;;;3.10;;
11334;SDS011;5722;42.620;23.374;2023-08-06T10:05:45;3.83;;;3.05;;
11334;SDS011;5722;42.620;23.374;2023-08-06T10:08:13;3.38;;;2.90;;
11334;SDS011;5722;42.620;23.374;2023-08-06T10:10:43;4.15;;;2.78;;
11334;SDS011;5722;42.620;23.374;2023-08-06T10:13:11;2.97;;;2.78;;
11334;SDS011;5722;42.620;23.374;2023-08-06T10:15:40;3.38;;;2.60;;
11334;SDS011;5722;42.620;23.374;2023-08-06T10:18:13;3.40;;;2.83;;
11334;SDS011;5722;42.620;23.374;2023-08-06T10:20:47;3.05;;;2.75;;
11334;SDS011;5722;42.620;23.374;2023-08-06T10:23:16;3.78;;;2.83;;
11334;SDS011;5722;42.620;23.374;2023-08-06T10:25:53;2.92;;;2.70;;
11334;SDS011;5722;42.620;23.374;2023-08-06T10:28:22;3.50;;;2.60;;
11334;SDS011;5722;42.620;23.374;2023-08-06T10:31:00;3.00;;;2.80;;
11334;SDS011;5722;42.620;23.374;2023-08-06T10:33:41;2.95;;;2.67;;
11334;SDS011;5722;42.620;23.374;2023-08-06T10:36:14;3.22;;;2.70;;
11334;SDS011;5722;42.620;23.374;2023-08-06T10:38:45;2.92;;;2.50;;
11334;SDS011;5722;42.620;23.374;2023-08-06T10:41:16;5.65;;;2.63;;
11334;SDS011;5722;42.620;23.374;2023-08-06T10:43:51;2.97;;;2.60;;
11334;SDS011;5722;42.620;23.374;2023-08-06T10:46:31;2.90;;;2.70;;
11334;SDS011;5722;42.620;23.374;2023-08-06T10:49:02;3.50;;;2.90;;
11334;SDS011;5722;42.620;23.374;2023-08-06T10:51:34;5.47;;;3.22;;
11334;SDS011;5722;42.620;23.374;2023-08-06T10:54:02;5.38;;;2.90;;
11334;SDS011;5722;42.620;23.374;2023-08-06T10:56:30;4.13;;;2.83;;
11334;SDS011;5722;42.620;23.374;2023-08-06T10:58:57;3.50;;;3.00;;
11334;SDS011;5722;42.620;23.374;2023-08-06T11:01:28;3.90;;;3.30;;
11334;SDS011;5722;42.620;23.374;2023-08-06T11:04:00;4.43;;;3.70;;
11334;SDS011;5722;42.620;23.374;2023-08-06T11:06:30;3.80;;;3.38;;
11334;SDS011;5722;42.620;23.374;2023-08-06T11:09:20;4.78;;;3.17;;
11334;SDS011;5722;42.620;23.374;2023-08-06T11:11:52;3.67;;;3.30;;
11334;SDS011;5722;42.620;23.374;2023-08-06T11:14:21;5.90;;;3.25;;
11334;SDS011;5722;42.620;23.374;2023-08-06T11:16:48;3.60;;;3.10;;
11334;SDS011;5722;42.620;23.374;2023-08-06T11:19:15;5.15;;;3.10;;
11334;SDS011;5722;42.620;23.374;2023-08-06T11:21:44;3.85;;;3.50;;
11334;SDS011;5722;42.620;23.374;2023-08-06T11:24:17;4.75;;;3.53;;
11334;SDS011;5722;42.620;23.374;2023-08-06T11:26:46;5.03;;;3.65;;
11334;SDS011;5722;42.620;23.374;2023-08-06T11:29:15;3.22;;;2.83;;
11334;SDS011;5722;42.620;23.374;2023-08-06T11:31:59;2.65;;;2.22;;
11334;SDS011;5722;42.620;23.374;2023-08-06T11:34:30;2.58;;;2.20;;
11334;SDS011;5722;42.620;23.374;2023-08-06T11:36:58;2.38;;;2.17;;
11334;SDS011;5722;42.620;23.374;2023-08-06T11:39:30;2.50;;;2.30;;
11334;SDS011;5722;42.620;23.374;2023-08-06T11:41:58;2.65;;;2.45;;
11334;SDS011;5722;42.620;23.374;2023-08-06T11:44:29;2.80;;;2.60;;
11334;SDS011;5722;42.620;23.374;2023-08-06T11:47:05;3.65;;;2.60;;
11334;SDS011;5722;42.620;23.374;2023-08-06T11:49:41;3.45;;;2.80;;
11334;SDS011;5722;42.620;23.374;2023-08-06T11:52:16;3.55;;;2.92;;
11334;SDS011;5722;42.620;23.374;2023-08-06T11:54:48;3.15;;;2.65;;
11334;SDS011;5722;42.620;23.374;2023-08-06T11:57:37;4.82;;;3.00;;
11334;SDS011;5722;42.620;23.374;2023-08-06T12:00:09;4.97;;;3.60;;
11334;SDS011;5722;42.620;23.374;2023-08-06T12:02:38;5.40;;;2.90;;
11334;SDS011;5722;42.620;23.374;2023-08-06T12:05:10;4.40;;;3.22;;
11334;SDS011;5722;42.620;23.374;2023-08-06T12:07:38;5.30;;;3.20;;
11334;SDS011;5722;42.620;23.374;2023-08-06T12:10:24;4.13;;;3.40;;
11334;SDS011;5722;42.620;23.374;2023-08-06T12:12:55;4.22;;;3.10;;
11334;SDS011;5722;42.620;23.374;2023-08-06T12:15:24;4.45;;;3.20;;
11334;SDS011;5722;42.620;23.374;2023-08-06T12:17:55;4.10;;;3.30;;
11334;SDS011;5722;42.620;23.374;2023-08-06T12:20:28;4.28;;;3.33;;
11334;SDS011;5722;42.620;23.374;2023-08-06T12:22:55;3.72;;;3.08;;
11334;SDS011;5722;42.620;23.374;2023-08-06T12:25:25;3.50;;;3.20;;
11334;SDS011;5722;42.620;23.374;2023-08-06T12:27:54;3.67;;;3.15;;
11334;SDS011;5722;42.620;23.374;2023-08-06T12:30:25;4.03;;;3.67;;
11334;SDS011;5722;42.620;23.374;2023-08-06T12:33:01;5.18;;;3.55;;
11334;SDS011;5722;42.620;23.374;2023-08-06T12:35:28;6.20;;;3.90;;
11334;SDS011;5722;42.620;23.374;2023-08-06T12:37:58;6.32;;;4.05;;
11334;SDS011;5722;42.620;23.374;2023-08-06T12:40:27;4.20;;;3.80;;
11334;SDS011;5722;42.620;23.374;2023-08-06T12:42:54;4.03;;;3.70;;
11334;SDS011;5722;42.620;23.374;2023-08-06T12:45:24;4.00;;;3.67;;
11334;SDS011;5722;42.620;23.374;2023-08-06T12:47:56;4.55;;;3.47;;
11334;SDS011;5722;42.620;23.374;2023-08-06T12:50:27;4.78;;;4.10;;
11334;SDS011;5722;42.620;23.374;2023-08-06T12:52:55;4.70;;;4.20;;
11334;SDS011;5722;42.620;23.374;2023-08-06T12:55:23;4.32;;;3.92;;
11334;SDS011;5722;42.620;23.374;2023-08-06T12:57:57;5.05;;;4.50;;
11334;SDS011;5722;42.620;23.374;2023-08-06T13:00:25;4.45;;;3.85;;
11334;SDS011;5722;42.620;23.374;2023-08-06T13:02:54;4.50;;;4.05;;
11334;SDS011;5722;42.620;23.374;2023-08-06T13:05:28;4.65;;;3.97;;
11334;SDS011;5722;42.620;23.374;2023-08-06T13:08:00;4.53;;;3.88;;
11334;SDS011;5722;42.620;23.374;2023-08-06T13:10:29;5.38;;;4.00;;
11334;SDS011;5722;42.620;23.374;2023-08-06T13:13:01;4.13;;;3.83;;
11334;SDS011;5722;42.620;23.374;2023-08-06T13:15:29;6.35;;;3.75;;
11334;SDS011;5722;42.620;23.374;2023-08-06T13:17:57;4.03;;;3.63;;
11334;SDS011;5722;42.620;23.374;2023-08-06T13:20:29;4.50;;;3.78;;
11334;SDS011;5722;42.620;23.374;2023-08-06T13:22:59;5.45;;;3.60;;
11334;SDS011;5722;42.620;23.374;2023-08-06T13:25:33;3.75;;;3.45;;
11334;SDS011;5722;42.620;23.374;2023-08-06T13:28:09;5.45;;;3.47;;
11334;SDS011;5722;42.620;23.374;2023-08-06T13:30:37;5.85;;;3.92;;
11334;SDS011;5722;42.620;23.374;2023-08-06T13:33:07;4.40;;;4.00;;
11334;SDS011;5722;42.620;23.374;2023-08-06T13:35:39;4.63;;;3.95;;
11334;SDS011;5722;42.620;23.374;2023-08-06T13:38:08;4.65;;;4.10;;
11334;SDS011;5722;42.620;23.374;2023-08-06T13:40:37;8.23;;;4.10;;
11334;SDS011;5722;42.620;23.374;2023-08-06T13:43:15;4.10;;;3.70;;
11334;SDS011;5722;42.620;23.374;2023-08-06T13:45:48;6.05;;;4.20;;
11334;SDS011;5722;42.620;23.374;2023-08-06T13:48:21;4.63;;;4.20;;
11334;SDS011;5722;42.620;23.374;2023-08-06T13:50:54;7.95;;;4.72;;
11334;SDS011;5722;42.620;23.374;2023-08-06T13:53:21;4.47;;;4.07;;
11334;SDS011;5722;42.620;23.374;2023-08-06T13:55:55;5.63;;;4.32;;
11334;SDS011;5722;42.620;23.374;2023-08-06T13:58:25;4.95;;;4.40;;
11334;SDS011;5722;42.620;23.374;2023-08-06T14:00:53;4.40;;;4.00;;
11334;SDS011;5722;42.620;23.374;2023-08-06T14:03:34;5.43;;;4.03;;
11334;SDS011;5722;42.620;23.374;2023-08-06T14:06:03;4.45;;;4.07;;
11334;SDS011;5722;42.620;23.374;2023-08-06T14:08:35;6.20;;;3.90;;
11334;SDS011;5722;42.620;23.374;2023-08-06T14:11:03;3.95;;;3.55;;
11334;SDS011;5722;42.620;23.374;2023-08-06T14:13:43;4.15;;;3.75;;
11334;SDS011;5722;42.620;23.374;2023-08-06T14:16:10;5.95;;;3.70;;
11334;SDS011;5722;42.620;23.374;2023-08-06T14:18:40;4.05;;;3.40;;
11334;SDS011;5722;42.620;23.374;2023-08-06T14:21:07;4.15;;;3.75;;
11334;SDS011;5722;42.620;23.374;2023-08-06T14:23:34;6.35;;;3.38;;
11334;SDS011;5722;42.620;23.374;2023-08-06T14:26:02;3.85;;;3.55;;
11334;SDS011;5722;42.620;23.374;2023-08-06T14:28:38;4.55;;;3.30;;
11334;SDS011;5722;42.620;23.374;2023-08-06T14:31:22;4.75;;;3.72;;
11334;SDS011;5722;42.620;23.374;2023-08-06T14:33:49;5.53;;;3.67;;
11334;SDS011;5722;42.620;23.374;2023-08-06T14:36:18;3.88;;;3.50;;
11334;SDS011;5722;42.620;23.374;2023-08-06T14:38:46;3.70;;;3.40;;
11334;SDS011;5722;42.620;23.374;2023-08-06T14:41:13;3.33;;;3.13;;
11334;SDS011;5722;42.620;23.374;2023-08-06T14:43:43;3.10;;;2.80;;
11334;SDS011;5722;42.620;23.374;2023-08-06T14:46:12;3.22;;;2.92;;
11334;SDS011;5722;42.620;23.374;2023-08-06T14:48:42;5.13;;;3.33;;
11334;SDS011;5722;42.620;23.374;2023-08-06T14:51:19;3.28;;;3.00;;
11334;SDS011;5722;42.620;23.374;2023-08-06T14:54:00;3.85;;;3.50;;
11334;SDS011;5722;42.620;23.374;2023-08-06T14:56:33;4.72;;;3.42;;
11334;SDS011;5722;42.620;23.374;2023-08-06T14:59:05;4.57;;;3.45;;
11334;SDS011;5722;42.620;23.374;2023-08-06T15:01:33;5.00;;;3.60;;
11334;SDS011;5722;42.620;23.374;2023-08-06T15:04:09;4.10;;;3.35;;
11334;SDS011;5722;42.620;23.374;2023-08-06T15:06:38;3.58;;;3.28;;
11334;SDS011;5722;42.620;23.374;2023-08-06T15:09:07;3.25;;;2.92;;
11334;SDS011;5722;42.620;23.374;2023-08-06T15:11:43;4.47;;;3.20;;
11334;SDS011;5722;42.620;23.374;2023-08-06T15:17:16;4.35;;;3.10;;
11334;SDS011;5722;42.620;23.374;2023-08-06T15:19:47;6.30;;;3.63;;
11334;SDS011;5722;42.620;23.374;2023-08-06T15:22:15;4.05;;;3.13;;
11334;SDS011;5722;42.620;23.374;2023-08-06T15:24:44;5.90;;;3.40;;
11334;SDS011;5722;42.620;23.374;2023-08-06T15:27:12;3.75;;;2.85;;
11334;SDS011;5722;42.620;23.374;2023-08-06T15:29:40;3.10;;;2.88;;
11334;SDS011;5722;42.620;23.374;2023-08-06T15:34:38;3.28;;;2.30;;
11334;SDS011;5722;42.620;23.374;2023-08-06T15:37:06;2.40;;;2.10;;
11334;SDS011;5722;42.620;23.374;2023-08-06T15:39:34;2.85;;;2.50;;
11334;SDS011;5722;42.620;23.374;2023-08-06T15:42:01;2.70;;;2.50;;
11334;SDS011;5722;42.620;23.374;2023-08-06T15:44:29;3.92;;;2.70;;
11334;SDS011;5722;42.620;23.374;2023-08-06T15:46:57;7.72;;;3.00;;
11334;SDS011;5722;42.620;23.374;2023-08-06T15:49:25;3.25;;;2.95;;
11334;SDS011;5722;42.620;23.374;2023-08-06T15:51:54;3.20;;;2.90;;